Time;durP1;ratioP1;P1;durP2;ratioP2;P2;SDS_P1;SDS_P2;PMS_P1;PMS_P2;Temp;Humidity;BMP_temperature;BMP_pressure;BME280_temperature;BME280_humidity;BME280_pressure;Samples;Min_cycle;Max_cycle;Signal;HPM_P1;HPM_P2
2021/12/14 00:01:38;;;;;;;0.10;0.10;;;7.60;99.90;;;;;;5040925;28;20043;-74
2021/12/14 00:04:11;;;;;;;0.10;0.10;;;7.60;99.90;;;;;;5029627;28;20463;-74
2021/12/14 00:06:39;;;;;;;0.10;0.10;;;7.50;99.90;;;;;;5029759;28;20140;-74
2021/12/14 00:09:08;;;;;;;0.10;0.10;;;7.60;99.90;;;;;;5030269;28;20451;-74
2021/12/14 00:15:10;;;;;;;0.10;0.10;;;7.70;99.90;;;;;;5029755;28;20068;-74
2021/12/14 00:17:21;;;;;;;0.10;0.10;;;7.70;99.90;;;;;;5022487;28;20055;-75
2021/12/14 00:19:50;;;;;;;0.10;0.10;;;7.70;99.90;;;;;;5029201;28;20041;-75
2021/12/14 00:22:30;;;;;;;0.10;0.10;;;7.70;99.90;;;;;;5046064;28;20099;-74
2021/12/14 00:24:58;;;;;;;0.15;0.15;;;7.60;99.90;;;;;;5037699;28;20187;-74
2021/12/14 00:27:24;;;;;;;0.08;0.08;;;7.70;99.90;;;;;;5044974;28;20112;-74
2021/12/14 00:29:54;;;;;;;0.05;0.05;;;7.70;99.90;;;;;;5048631;28;20704;-74
2021/12/14 00:32:24;;;;;;;0.10;0.10;;;7.70;99.90;;;;;;5049293;28;20078;-75
2021/12/14 00:34:52;;;;;;;0.10;0.10;;;7.70;99.90;;;;;;5030036;28;20029;-75
2021/12/14 00:37:20;;;;;;;0.17;0.17;;;7.70;99.90;;;;;;5029327;28;20135;-75
2021/12/14 00:39:48;;;;;;;0.10;0.10;;;7.70;99.90;;;;;;5029125;28;20040;-74
2021/12/14 00:42:14;;;;;;;0.60;0.45;;;7.60;99.90;;;;;;5029022;28;20033;-74
2021/12/14 00:44:42;;;;;;;0.10;0.10;;;7.50;99.90;;;;;;5029288;28;20029;-73
2021/12/14 00:47:08;;;;;;;0.13;0.13;;;7.40;99.90;;;;;;5044187;28;20091;-74
2021/12/14 00:49:34;;;;;;;0.10;0.10;;;7.40;99.90;;;;;;5050866;28;20032;-74
2021/12/14 00:52:02;;;;;;;0.30;0.30;;;7.40;99.90;;;;;;5037726;28;20112;-74
2021/12/14 00:54:28;;;;;;;0.10;0.10;;;7.50;99.90;;;;;;5043018;28;20025;-73
2021/12/14 00:56:54;;;;;;;0.10;0.10;;;7.40;99.90;;;;;;5047707;28;20025;-74
2021/12/14 00:59:21;;;;;;;1.45;1.40;;;7.40;99.90;;;;;;5032934;28;20390;-73
2021/12/14 01:01:57;;;;;;;0.10;0.10;;;7.40;99.90;;;;;;5045790;28;20025;-74
2021/12/14 01:04:31;;;;;;;0.10;0.10;;;7.40;99.90;;;;;;5053396;28;20025;-75
2021/12/14 01:06:58;;;;;;;0.10;0.10;;;7.40;99.90;;;;;;5053575;28;20564;-74
2021/12/14 01:09:31;;;;;;;0.70;0.70;;;7.40;99.90;;;;;;5047950;28;20030;-74
2021/12/14 01:12:05;;;;;;;0.10;0.10;;;7.30;99.90;;;;;;5033591;28;20060;-74
2021/12/14 01:15:11;;;;;;;0.10;0.10;;;7.30;99.90;;;;;;5032885;28;20106;-74
2021/12/14 01:17:42;;;;;;;0.10;0.10;;;7.30;99.90;;;;;;5032767;28;20029;-74
2021/12/14 01:20:11;;;;;;;0.10;0.10;;;7.30;99.90;;;;;;5032643;28;20091;-74
2021/12/14 01:22:45;;;;;;;0.10;0.10;;;7.30;99.90;;;;;;5032950;28;20037;-74
2021/12/14 01:25:37;;;;;;;0.10;0.10;;;7.30;99.90;;;;;;5033066;28;20029;-74
2021/12/14 01:28:16;;;;;;;0.10;0.10;;;7.20;99.90;;;;;;5031213;28;20052;-74
2021/12/14 01:31:09;;;;;;;0.20;0.20;;;7.30;99.90;;;;;;5032636;28;20030;-74
2021/12/14 01:33:37;;;;;;;0.10;0.10;;;7.20;99.90;;;;;;5032580;28;20060;-74
2021/12/14 01:36:10;;;;;;;0.10;0.10;;;7.30;99.90;;;;;;5038134;28;20056;-75
2021/12/14 01:38:46;;;;;;;0.10;0.10;;;7.30;99.90;;;;;;5041403;28;20049;-74
2021/12/14 01:41:14;;;;;;;0.10;0.10;;;7.20;99.90;;;;;;5050691;28;20108;-75
2021/12/14 01:43:57;;;;;;;0.22;0.22;;;7.20;99.90;;;;;;5035695;28;20459;-75
2021/12/14 01:46:35;;;;;;;0.10;0.10;;;7.30;99.90;;;;;;5042627;28;20116;-74
2021/12/14 01:49:06;;;;;;;0.10;0.10;;;7.30;99.90;;;;;;5051035;28;20128;-74
2021/12/14 01:51:35;;;;;;;0.13;0.13;;;7.30;99.90;;;;;;5051693;28;20044;-74
2021/12/14 01:54:02;;;;;;;0.10;0.10;;;7.30;99.90;;;;;;5045284;28;20120;-74
2021/12/14 01:56:30;;;;;;;0.10;0.10;;;7.20;99.90;;;;;;5050165;28;20068;-74
2021/12/14 01:59:04;;;;;;;0.10;0.10;;;7.30;99.90;;;;;;5032073;28;20056;-74
2021/12/14 02:01:43;;;;;;;0.10;0.10;;;7.30;99.90;;;;;;5036030;28;20080;-75
2021/12/14 02:04:24;;;;;;;0.10;0.10;;;7.40;99.90;;;;;;5031971;28;20028;-73
2021/12/14 02:06:59;;;;;;;1.08;1.05;;;7.40;99.90;;;;;;5031877;28;20029;-74
2021/12/14 02:09:27;;;;;;;0.15;0.15;;;7.40;99.90;;;;;;5031513;28;20533;-74
2021/12/14 02:11:56;;;;;;;0.40;0.40;;;7.30;99.90;;;;;;5031730;28;20091;-74
2021/12/14 02:14:23;;;;;;;0.10;0.10;;;7.30;99.90;;;;;;5031678;28;20163;-74
2021/12/14 02:17:00;;;;;;;0.10;0.10;;;7.30;99.90;;;;;;5031405;28;20029;-74
2021/12/14 02:19:27;;;;;;;0.20;0.20;;;7.30;99.90;;;;;;5031200;28;20033;-75
2021/12/14 02:21:54;;;;;;;0.10;0.10;;;7.30;99.90;;;;;;5031386;28;20416;-74
2021/12/14 02:24:22;;;;;;;0.10;0.10;;;7.30;99.90;;;;;;5031323;28;20067;-75
2021/12/14 02:26:49;;;;;;;0.10;0.10;;;7.30;99.90;;;;;;5031509;28;20029;-74
2021/12/14 02:29:33;;;;;;;0.10;0.10;;;7.20;99.90;;;;;;5030962;28;20495;-75
2021/12/14 02:32:20;;;;;;;0.10;0.10;;;7.30;99.90;;;;;;5031303;28;20033;-75
2021/12/14 02:34:53;;;;;;;0.10;0.10;;;7.40;99.90;;;;;;5029753;28;20040;-74
2021/12/14 02:37:20;;;;;;;;;;;7.30;99.90;;;;;;5030622;28;20033;-74
2021/12/14 02:39:48;;;;;;;0.10;0.10;;;7.30;99.90;;;;;;5054121;28;20296;-74
2021/12/14 02:42:21;;;;;;;0.10;0.10;;;7.40;99.90;;;;;;5031405;28;20183;-75
2021/12/14 02:44:50;;;;;;;0.10;0.10;;;7.40;99.90;;;;;;5041781;28;20025;-75
2021/12/14 02:47:19;;;;;;;0.95;0.95;;;7.40;99.90;;;;;;5051029;28;20033;-74
2021/12/14 02:49:45;;;;;;;0.10;0.10;;;7.30;99.90;;;;;;5043684;28;20500;-74
2021/12/14 02:52:15;;;;;;;0.10;0.10;;;7.40;99.90;;;;;;5045137;28;20076;-73
2021/12/14 02:54:48;;;;;;;0.10;0.10;;;8.00;99.90;;;;;;5036448;28;20025;-75
2021/12/14 02:57:23;;;;;;;0.10;0.10;;;7.30;99.90;;;;;;5050555;28;20071;-74
2021/12/14 02:59:52;;;;;;;0.10;0.10;;;7.30;99.90;;;;;;5049903;28;20087;-74
2021/12/14 03:02:23;;;;;;;0.10;0.10;;;7.30;99.90;;;;;;5033413;28;20025;-74
2021/12/14 03:04:59;;;;;;;0.10;0.10;;;7.30;99.90;;;;;;5028906;28;20447;-74
2021/12/14 03:07:31;;;;;;;0.47;0.47;;;7.20;99.90;;;;;;5030490;28;20025;-74
2021/12/14 03:10:55;;;;;;;0.10;0.10;;;7.20;99.90;;;;;;5029863;28;20044;-75
2021/12/14 03:12:53;;;;;;;0.10;0.10;;;7.20;99.90;;;;;;5018814;28;20080;-74
2021/12/14 03:15:41;;;;;;;0.10;0.10;;;7.10;99.90;;;;;;5029928;28;20490;-75
2021/12/14 03:18:10;;;;;;;0.25;0.25;;;7.10;99.90;;;;;;5028697;28;20037;-74
2021/12/14 03:20:49;;;;;;;0.30;0.30;;;7.10;99.90;;;;;;5029993;28;20013;-76
2021/12/14 03:23:27;;;;;;;0.10;0.10;;;7.10;99.90;;;;;;5030202;28;20022;-75
2021/12/14 03:25:56;;;;;;;0.10;0.10;;;7.10;99.90;;;;;;5031241;28;20067;-75
2021/12/14 03:28:24;;;;;;;0.10;0.10;;;7.00;99.90;;;;;;5030159;28;20044;-75
2021/12/14 03:31:19;;;;;;;0.10;0.10;;;7.00;99.90;;;;;;5029906;28;20026;-75
2021/12/14 03:33:54;;;;;;;0.10;0.10;;;7.00;99.90;;;;;;5029925;28;20040;-73
2021/12/14 03:36:48;;;;;;;0.10;0.10;;;7.00;99.90;;;;;;5032566;28;20044;-73
2021/12/14 03:39:13;;;;;;;0.10;0.10;;;7.00;99.90;;;;;;5035167;28;20038;-73
2021/12/14 03:41:51;;;;;;;0.10;0.10;;;7.00;99.90;;;;;;5045836;28;20071;-73
2021/12/14 03:44:25;;;;;;;0.00;0.00;;;7.00;99.90;;;;;;5040170;28;20037;-74
2021/12/14 03:47:05;;;;;;;0.10;0.10;;;6.90;99.90;;;;;;5030243;28;20033;-75
2021/12/14 03:49:37;;;;;;;0.10;0.10;;;6.90;99.90;;;;;;5029487;28;20027;-74
2021/12/14 03:52:08;;;;;;;0.95;0.95;;;6.90;99.90;;;;;;5029523;28;20095;-74
2021/12/14 03:54:33;;;;;;;0.10;0.10;;;6.90;99.90;;;;;;5040659;28;20017;-74
2021/12/14 03:57:00;;;;;;;0.38;0.38;;;6.90;99.90;;;;;;5043685;28;20047;-73
2021/12/14 03:59:29;;;;;;;0.10;0.10;;;6.90;99.90;;;;;;5029564;28;20029;-74
2021/12/14 04:01:57;;;;;;;0.10;0.10;;;6.80;99.90;;;;;;5039247;28;20497;-74
2021/12/14 04:04:36;;;;;;;0.10;0.10;;;6.90;99.90;;;;;;5049349;28;20029;-75
2021/12/14 04:07:05;;;;;;;0.10;0.10;;;6.90;99.90;;;;;;5049816;28;20052;-75
2021/12/14 04:09:34;;;;;;;0.10;0.10;;;6.90;99.90;;;;;;5049773;28;20021;-75
2021/12/14 04:12:00;;;;;;;0.10;0.10;;;6.90;99.90;;;;;;5033481;28;20056;-75
2021/12/14 04:14:29;;;;;;;0.57;0.57;;;7.10;99.90;;;;;;5029796;28;20038;-76
2021/12/14 04:16:56;;;;;;;0.20;0.20;;;7.60;99.90;;;;;;5029020;28;20029;-74
2021/12/14 04:19:27;;;;;;;0.10;0.10;;;7.60;99.90;;;;;;5029848;28;20060;-74
2021/12/14 04:22:01;;;;;;;0.10;0.10;;;7.50;99.90;;;;;;5029702;28;20022;-73
2021/12/14 04:24:31;;;;;;;0.15;0.15;;;6.80;99.90;;;;;;5029436;28;20076;-73
2021/12/14 04:27:00;;;;;;;0.10;0.10;;;6.80;99.90;;;;;;5033907;28;20562;-74
2021/12/14 04:29:26;;;;;;;0.10;0.10;;;6.80;99.90;;;;;;5033644;28;20045;-74
2021/12/14 04:31:52;;;;;;;0.10;0.10;;;6.80;99.90;;;;;;5037316;28;20033;-73
2021/12/14 04:34:19;;;;;;;0.10;0.10;;;6.80;99.90;;;;;;5046526;28;20479;-74
2021/12/14 04:36:52;;;;;;;0.00;0.00;;;6.80;99.90;;;;;;5044549;28;20554;-74
2021/12/14 04:53:06;;;;;;;0.10;0.10;;;6.60;99.90;;;;;;5032774;28;20592;-74
2021/12/14 04:55:32;;;;;;;0.10;0.10;;;6.50;99.90;;;;;;5051059;28;20029;-74
2021/12/14 04:57:57;;;;;;;0.10;0.10;;;6.60;99.90;;;;;;5052775;28;20451;-74
2021/12/14 05:00:29;;;;;;;0.10;0.10;;;6.60;99.90;;;;;;5051904;28;20536;-74
2021/12/14 05:02:57;;;;;;;0.10;0.10;;;6.60;99.90;;;;;;5046037;28;20546;-74
2021/12/14 05:05:46;;;;;;;0.10;0.10;;;6.70;99.90;;;;;;5032517;28;20045;-74
2021/12/14 05:10:58;;;;;;;0.10;0.10;;;6.60;99.90;;;;;;5052167;28;20104;-74
2021/12/14 05:13:24;;;;;;;;;;;6.60;99.90;;;;;;5052693;28;20029;-74
2021/12/14 05:15:50;;;;;;;0.10;0.10;;;6.50;99.90;;;;;;5052624;28;19923;-74
2021/12/14 05:18:16;;;;;;;0.10;0.10;;;6.50;99.90;;;;;;5053227;28;20108;-73
2021/12/14 05:20:47;;;;;;;0.10;0.10;;;6.60;99.90;;;;;;5038924;28;20049;-75
2021/12/14 05:23:20;;;;;;;0.10;0.10;;;6.60;99.90;;;;;;5032052;28;20068;-74
2021/12/14 05:25:46;;;;;;;;;;;6.60;99.90;;;;;;5032784;28;20118;-74
2021/12/14 05:28:14;;;;;;;0.38;0.38;;;6.60;99.90;;;;;;5033869;28;20382;-75
2021/12/14 05:30:45;;;;;;;0.10;0.10;;;6.40;99.90;;;;;;5034529;28;20082;-74
2021/12/14 05:33:15;;;;;;;0.10;0.10;;;6.40;99.90;;;;;;5040011;28;20069;-73
2021/12/14 05:35:45;;;;;;;0.10;0.10;;;6.40;99.90;;;;;;5031331;28;20029;-74
2021/12/14 05:38:14;;;;;;;0.10;0.10;;;6.50;99.90;;;;;;5031777;28;20045;-74
2021/12/14 05:43:30;;;;;;;0.10;0.10;;;6.50;99.90;;;;;;5031677;28;20104;-73
2021/12/14 05:46:03;;;;;;;0.10;0.10;;;6.50;99.90;;;;;;5031117;28;20044;-74
2021/12/14 05:48:32;;;;;;;0.10;0.10;;;6.40;99.90;;;;;;5032238;28;20014;-74
2021/12/14 05:51:07;;;;;;;0.10;0.10;;;6.30;99.90;;;;;;5034319;28;20027;-74
2021/12/14 05:53:37;;;;;;;0.10;0.10;;;6.20;99.90;;;;;;5050817;28;20051;-74
2021/12/14 05:56:12;;;;;;;0.20;0.20;;;6.20;99.90;;;;;;5051466;28;20038;-74
2021/12/14 05:58:38;;;;;;;0.30;0.30;;;6.20;99.90;;;;;;5050900;28;20051;-74
2021/12/14 06:01:14;;;;;;;0.10;0.10;;;6.10;99.90;;;;;;5050892;28;20025;-74
2021/12/14 06:03:49;;;;;;;0.10;0.10;;;6.10;99.90;;;;;;5051415;28;20493;-74
2021/12/14 06:06:19;;;;;;;0.20;0.20;;;6.10;99.90;;;;;;5039731;28;20036;-74
2021/12/14 06:08:45;;;;;;;0.10;0.10;;;6.20;99.90;;;;;;5031405;28;20026;-73
2021/12/14 06:11:23;;;;;;;0.10;0.10;;;6.20;99.90;;;;;;5030926;28;20056;-74
2021/12/14 06:13:49;;;;;;;0.10;0.10;;;6.20;99.90;;;;;;5043288;28;20111;-73
2021/12/14 06:16:27;;;;;;;0.10;0.10;;;6.10;99.90;;;;;;5050369;28;20028;-73
2021/12/14 06:18:54;;;;;;;0.10;0.10;;;6.10;99.90;;;;;;5050574;28;20045;-74
2021/12/14 06:21:32;;;;;;;0.10;0.10;;;6.10;99.90;;;;;;5049549;28;20502;-74
2021/12/14 06:24:07;;;;;;;0.10;0.10;;;6.10;99.90;;;;;;5037788;28;20037;-74
2021/12/14 06:26:38;;;;;;;0.10;0.10;;;6.00;99.90;;;;;;5030951;28;20124;-75
2021/12/14 06:29:10;;;;;;;0.10;0.10;;;5.90;99.90;;;;;;5042216;28;20033;-75
2021/12/14 06:31:37;;;;;;;0.10;0.10;;;5.80;99.90;;;;;;5045521;28;20409;-75
2021/12/14 06:34:15;;;;;;;0.35;0.35;;;6.00;99.90;;;;;;5030504;28;20403;-74
2021/12/14 06:36:52;;;;;;;0.10;0.10;;;6.00;99.90;;;;;;5030759;28;20029;-74
2021/12/14 06:39:18;;;;;;;0.10;0.10;;;6.00;99.90;;;;;;5034015;28;20104;-73
2021/12/14 06:41:44;;;;;;;0.10;0.10;;;6.10;99.90;;;;;;5041854;28;20075;-74
2021/12/14 06:44:10;;;;;;;0.10;0.10;;;6.00;99.90;;;;;;5051046;28;20037;-74
2021/12/14 06:46:40;;;;;;;0.10;0.10;;;5.90;99.90;;;;;;5046679;28;20100;-75
2021/12/14 06:49:14;;;;;;;0.10;0.10;;;5.90;99.90;;;;;;5049285;28;20100;-75
2021/12/14 06:51:44;;;;;;;3.50;1.63;;;5.80;99.90;;;;;;5035694;28;20029;-75
2021/12/14 06:54:15;;;;;;;0.10;0.10;;;6.10;99.90;;;;;;5030511;28;20025;-74
2021/12/14 06:56:41;;;;;;;0.10;0.10;;;5.90;99.90;;;;;;5033770;28;20056;-74
2021/12/14 06:59:10;;;;;;;0.10;0.10;;;5.90;99.90;;;;;;5049917;28;20039;-74
2021/12/14 07:01:43;;;;;;;0.10;0.10;;;5.90;99.90;;;;;;5048883;28;20104;-74
2021/12/14 07:04:16;;;;;;;0.10;0.10;;;6.00;99.90;;;;;;5047843;28;20075;-75
2021/12/14 07:09:28;;;;;;;0.20;0.20;;;6.10;99.90;;;;;;5040006;28;20412;-67
2021/12/14 07:13:08;;;;;;;0.10;0.10;;;6.10;99.90;;;;;;5044143;28;20079;-71
2021/12/14 07:15:36;;;;;;;0.10;0.10;;;6.20;99.90;;;;;;5007528;28;20045;-67
2021/12/14 07:18:06;;;;;;;0.10;0.10;;;6.20;99.90;;;;;;5022089;28;20032;-67
2021/12/14 07:20:43;;;;;;;0.10;0.10;;;6.20;99.90;;;;;;5021643;28;20037;-66
2021/12/14 07:23:15;;;;;;;0.10;0.10;;;6.70;99.90;;;;;;5016756;28;20523;-67
2021/12/14 07:25:41;;;;;;;0.10;0.10;;;6.20;99.90;;;;;;5023311;28;20056;-67
2021/12/14 07:28:10;;;;;;;0.10;0.10;;;6.20;99.90;;;;;;5023757;28;20030;-67
2021/12/14 07:30:42;;;;;;;0.10;0.10;;;6.10;99.90;;;;;;5030404;28;20025;-68
2021/12/14 07:33:24;;;;;;;0.10;0.10;;;6.20;99.90;;;;;;5026955;28;20441;-68
2021/12/14 07:36:04;;;;;;;0.10;0.10;;;6.20;99.90;;;;;;5007514;28;20280;-67
2021/12/14 07:38:32;;;;;;;0.10;0.10;;;6.30;99.90;;;;;;5037162;28;20216;-68
2021/12/14 07:41:05;;;;;;;0.65;0.65;;;6.30;99.90;;;;;;5043255;28;20033;-69
2021/12/14 07:43:57;;;;;;;0.10;0.10;;;6.40;99.90;;;;;;5040706;28;20029;-65
2021/12/14 07:46:31;;;;;;;0.10;0.10;;;6.40;99.90;;;;;;5019760;28;20104;-66
2021/12/14 07:49:01;;;;;;;0.10;0.10;;;6.30;99.90;;;;;;5007582;28;20524;-67
2021/12/14 07:51:30;;;;;;;0.10;0.10;;;6.20;99.90;;;;;;5028921;28;20103;-66
2021/12/14 07:54:04;;;;;;;0.10;0.10;;;6.20;99.90;;;;;;5025669;28;20072;-65
2021/12/14 07:56:41;;;;;;;0.10;0.10;;;6.30;99.90;;;;;;5026286;28;20060;-64
2021/12/14 07:59:35;;;;;;;0.17;0.17;;;6.30;99.90;;;;;;5025547;28;20144;-66
2021/12/14 08:02:21;;;;;;;0.15;0.15;;;6.40;99.90;;;;;;5042052;28;20036;-68
2021/12/14 08:04:56;;;;;;;0.10;0.10;;;6.40;99.90;;;;;;5045829;28;20104;-66
2021/12/14 08:07:35;;;;;;;0.10;0.10;;;6.40;99.90;;;;;;5045545;28;20032;-65
2021/12/14 08:10:18;;;;;;;0.10;0.10;;;6.40;99.90;;;;;;5025864;28;20089;-68
2021/12/14 08:12:55;;;;;;;0.10;0.10;;;6.30;99.90;;;;;;5036883;28;20121;-66
2021/12/14 08:15:30;;;;;;;0.10;0.10;;;6.40;99.90;;;;;;5044644;28;20121;-68
2021/12/14 08:18:26;;;;;;;0.10;0.10;;;6.40;99.90;;;;;;5045239;28;20040;-66
2021/12/14 08:21:19;;;;;;;0.10;0.10;;;6.40;99.90;;;;;;5026834;28;20038;-68
2021/12/14 08:23:56;;;;;;;0.10;0.10;;;6.60;99.90;;;;;;5031885;28;20033;-66
2021/12/14 08:26:30;;;;;;;0.25;0.25;;;6.60;99.90;;;;;;5031581;28;20332;-67
2021/12/14 08:29:22;;;;;;;0.10;0.10;;;6.70;99.90;;;;;;5031617;28;20029;-67
2021/12/14 08:32:13;;;;;;;0.10;0.10;;;6.60;99.90;;;;;;5032202;28;20026;-66
2021/12/14 08:34:44;;;;;;;0.10;0.10;;;6.60;99.90;;;;;;5031853;28;20022;-65
2021/12/14 08:37:25;;;;;;;0.10;0.10;;;6.60;99.90;;;;;;5014576;28;20058;-67
2021/12/14 08:40:00;;;;;;;0.10;0.10;;;6.60;99.90;;;;;;5027668;28;20489;-64
2021/12/14 08:42:45;;;;;;;0.10;0.10;;;6.80;99.90;;;;;;5037324;28;20056;-66
2021/12/14 08:45:26;;;;;;;0.10;0.10;;;6.80;99.90;;;;;;5033251;28;20029;-67
2021/12/14 08:48:22;;;;;;;0.10;0.10;;;6.80;99.90;;;;;;5031491;28;20021;-67
2021/12/14 08:50:55;;;;;;;0.10;0.10;;;6.80;99.90;;;;;;5031085;28;20029;-70
2021/12/14 08:53:23;;;;;;;0.90;0.90;;;6.70;99.90;;;;;;5017481;28;20034;-66
2021/12/14 08:55:55;;;;;;;0.10;0.10;;;6.60;99.90;;;;;;5029643;28;20034;-69
2021/12/14 08:58:22;;;;;;;0.45;0.45;;;6.60;99.90;;;;;;5031343;28;20110;-68
2021/12/14 09:00:53;;;;;;;0.90;0.50;;;6.60;99.90;;;;;;5031675;28;20013;-66
2021/12/14 09:03:44;;;;;;;0.10;0.10;;;6.70;99.90;;;;;;5023241;28;20025;-65
2021/12/14 09:06:18;;;;;;;0.10;0.10;;;6.80;99.90;;;;;;5028292;28;20052;-67
2021/12/14 09:08:46;;;;;;;0.20;0.20;;;6.80;99.90;;;;;;5031440;28;20154;-68
2021/12/14 09:11:16;;;;;;;0.08;0.08;;;6.80;99.90;;;;;;5025896;28;20026;-67
2021/12/14 09:13:43;;;;;;;0.10;0.10;;;6.80;99.90;;;;;;5029166;28;20092;-65
2021/12/14 09:16:18;;;;;;;0.10;0.10;;;6.80;99.90;;;;;;5029521;28;20014;-67
2021/12/14 09:18:48;;;;;;;0.10;0.10;;;6.90;99.90;;;;;;5029843;28;20032;-68
2021/12/14 09:21:24;;;;;;;0.10;0.10;;;6.80;99.90;;;;;;5019261;28;20111;-66
2021/12/14 09:24:00;;;;;;;11.98;2.40;;;6.80;99.90;;;;;;5031213;28;20496;-67
2021/12/14 09:26:31;;;;;;;0.10;0.10;;;7.10;99.90;;;;;;5030825;28;20032;-66
2021/12/14 09:28:58;;;;;;;0.13;0.13;;;7.20;99.90;;;;;;5017856;28;20034;-69
2021/12/14 09:31:31;;;;;;;0.10;0.10;;;7.20;99.90;;;;;;5010082;28;20022;-68
2021/12/14 09:33:59;;;;;;;1.10;1.00;;;7.40;99.90;;;;;;5011269;28;20469;-68
2021/12/14 09:36:28;;;;;;;0.10;0.10;;;7.40;99.90;;;;;;5010685;28;20036;-68
2021/12/14 09:38:58;;;;;;;4.28;3.97;;;7.20;99.90;;;;;;5026217;28;20563;-67
2021/12/14 09:41:28;;;;;;;0.10;0.10;;;7.20;99.90;;;;;;5030237;28;20049;-67
2021/12/14 09:43:55;;;;;;;0.10;0.10;;;7.30;99.90;;;;;;5025233;28;20065;-66
2021/12/14 09:46:21;;;;;;;0.10;0.10;;;7.40;99.90;;;;;;5022269;28;20065;-68
2021/12/14 09:48:55;;;;;;;0.10;0.10;;;7.40;99.90;;;;;;5030257;28;20131;-69
2021/12/14 09:51:22;;;;;;;;;;;7.50;99.90;;;;;;5041296;28;20033;-67
2021/12/14 09:53:53;;;;;;;0.10;0.10;;;7.70;99.90;;;;;;5019662;28;20381;-69
2021/12/14 09:56:22;;;;;;;0.43;0.43;;;7.70;99.90;;;;;;5020548;28;20025;-67
2021/12/14 09:58:51;;;;;;;0.13;0.13;;;7.60;99.90;;;;;;5020712;28;20083;-68
2021/12/14 10:01:29;;;;;;;0.10;0.10;;;7.60;99.90;;;;;;5030576;28;20018;-76
2021/12/14 10:03:58;;;;;;;0.10;0.10;;;7.60;99.90;;;;;;5024527;28;20393;-69
2021/12/14 10:06:28;;;;;;;0.10;0.10;;;7.40;99.90;;;;;;5025519;28;20064;-70
2021/12/14 10:09:02;;;;;;;0.10;0.10;;;7.50;99.90;;;;;;5026748;28;20036;-68
2021/12/14 10:14:29;;;;;;;0.10;0.10;;;7.50;99.90;;;;;;5029301;28;20052;-70
2021/12/14 10:16:55;;;;;;;0.10;0.10;;;7.70;99.90;;;;;;5030424;28;20024;-68
2021/12/14 10:19:26;;;;;;;0.13;0.13;;;7.70;99.90;;;;;;5020001;28;20033;-68
2021/12/14 10:21:59;;;;;;;0.10;0.10;;;7.60;99.90;;;;;;5023841;28;20078;-68
2021/12/14 10:24:25;;;;;;;0.10;0.10;;;7.50;99.90;;;;;;5026653;28;20063;-69
2021/12/14 10:27:01;;;;;;;0.10;0.10;;;7.60;99.90;;;;;;5024977;28;20112;-71
2021/12/14 10:29:29;;;;;;;0.10;0.10;;;7.70;99.90;;;;;;5023977;28;20065;-66
2021/12/14 10:32:02;;;;;;;0.10;0.10;;;7.80;99.90;;;;;;5023350;28;20037;-67
2021/12/14 10:34:29;;;;;;;;;;;7.20;99.90;;;;;;5028273;28;20500;-74
2021/12/14 10:37:07;;;;;;;0.05;0.05;;;7.30;99.90;;;;;;5027556;28;20281;-68
2021/12/14 10:44:52;;;;;;;0.10;0.10;;;7.70;99.90;;;;;;5011235;28;20092;-67
2021/12/14 10:47:21;;;;;;;0.52;0.52;;;7.80;99.90;;;;;;5024050;28;20048;-68
2021/12/14 10:49:48;;;;;;;0.10;0.10;;;7.80;99.90;;;;;;5022854;28;20025;-70
2021/12/14 10:52:19;;;;;;;0.10;0.10;;;7.70;99.90;;;;;;5021225;28;20067;-69
2021/12/14 10:54:49;;;;;;;0.03;0.03;;;7.90;99.90;;;;;;5056024;28;20377;-68
2021/12/14 10:57:21;;;;;;;0.10;0.10;;;7.90;99.90;;;;;;5027382;28;20029;-71
2021/12/14 10:59:51;;;;;;;0.20;0.20;;;7.90;99.90;;;;;;5028215;28;20026;-69
2021/12/14 11:02:20;;;;;;;0.10;0.10;;;8.00;99.90;;;;;;5026542;28;20021;-68
2021/12/14 11:04:55;;;;;;;0.10;0.10;;;7.80;99.90;;;;;;5033440;28;20021;-69
2021/12/14 11:07:26;;;;;;;0.10;0.10;;;7.80;99.90;;;;;;5025528;28;20037;-68
2021/12/14 11:09:55;;;;;;;0.47;0.47;;;7.80;99.90;;;;;;5020230;28;20026;-71
2021/12/14 11:12:26;;;;;;;0.28;0.28;;;7.70;99.90;;;;;;5028771;28;20083;-68
2021/12/14 11:15:12;;;;;;;0.10;0.10;;;7.60;99.90;;;;;;5029840;28;20223;-68
2021/12/14 11:20:53;;;;;;;0.10;0.10;;;8.00;99.90;;;;;;5021912;28;20077;-68
2021/12/14 11:23:24;;;;;;;0.10;0.10;;;8.00;99.90;;;;;;5032041;28;20095;-68
2021/12/14 11:25:50;;;;;;;0.63;0.63;;;8.00;99.90;;;;;;5023849;28;20053;-68
2021/12/14 11:28:22;;;;;;;0.10;0.10;;;7.90;99.90;;;;;;5026146;28;20077;-68
2021/12/14 11:31:01;;;;;;;0.10;0.10;;;7.80;99.90;;;;;;5027025;28;20032;-68
2021/12/14 11:33:45;;;;;;;0.10;0.10;;;8.10;99.90;;;;;;5026563;28;20100;-68
2021/12/14 11:36:24;;;;;;;0.10;0.10;;;8.30;99.90;;;;;;5016889;28;20087;-69
2021/12/14 11:39:00;;;;;;;1.00;1.00;;;8.30;99.90;;;;;;5021733;28;20113;-68
2021/12/14 11:41:29;;;;;;;0.30;0.30;;;8.30;99.90;;;;;;5026907;28;20036;-66
2021/12/14 11:43:57;;;;;;;0.10;0.10;;;8.20;99.90;;;;;;5027436;28;20025;-68
2021/12/14 11:46:24;;;;;;;0.10;0.10;;;8.20;99.90;;;;;;5025892;28;20476;-69
2021/12/14 11:48:57;;;;;;;0.85;0.85;;;8.10;99.90;;;;;;5026280;28;20026;-68
2021/12/14 11:51:25;;;;;;;0.10;0.10;;;8.20;99.90;;;;;;5019585;28;20037;-69
2021/12/14 11:53:54;;;;;;;0.10;0.10;;;8.30;99.90;;;;;;5026789;28;20101;-68
2021/12/14 11:56:24;;;;;;;0.10;0.10;;;8.40;99.90;;;;;;5031203;28;20541;-67
2021/12/14 11:58:56;;;;;;;2.05;1.95;;;8.40;99.90;;;;;;5035309;28;20025;-70
2021/12/14 12:01:48;;;;;;;0.10;0.10;;;8.30;99.90;;;;;;5036992;28;20466;-68
2021/12/14 12:04:20;;;;;;;0.10;0.10;;;8.10;99.90;;;;;;5034645;28;20033;-69
2021/12/14 12:09:28;;;;;;;0.00;0.00;;;8.50;99.90;;;;;;5027479;28;20052;-68
2021/12/14 12:12:00;;;;;;;0.10;0.10;;;8.50;99.90;;;;;;5030682;28;20022;-71
2021/12/14 12:14:31;;;;;;;0.10;0.10;;;8.60;99.90;;;;;;5030846;28;20043;-68
2021/12/14 12:17:22;;;;;;;0.10;0.10;;;8.70;99.90;;;;;;5050220;28;20017;-71
2021/12/14 12:20:14;;;;;;;0.00;0.00;;;8.80;99.90;;;;;;5049593;28;20025;-67
2021/12/14 12:22:43;;;;;;;0.10;0.10;;;8.80;99.90;;;;;;5012704;28;20022;-68
2021/12/14 12:25:34;;;;;;;0.08;0.08;;;8.70;99.90;;;;;;5015975;28;20087;-68
2021/12/14 12:28:03;;;;;;;0.10;0.10;;;8.80;99.90;;;;;;5031889;28;20065;-69
2021/12/14 12:30:44;;;;;;;0.00;0.00;;;8.90;99.90;;;;;;5022931;28;20482;-68
2021/12/14 12:33:22;;;;;;;1.00;0.90;;;8.90;99.90;;;;;;5026123;28;20044;-69
2021/12/14 12:36:03;;;;;;;0.10;0.10;;;8.70;99.90;;;;;;5027617;28;20389;-71
2021/12/14 12:38:46;;;;;;;0.25;0.25;;;8.80;99.90;;;;;;5027521;28;20017;-69
2021/12/14 12:41:46;;;;;;;0.10;0.10;;;8.90;99.90;;;;;;5031538;28;20017;-69
2021/12/14 12:44:23;;;;;;;0.10;0.10;;;8.90;99.90;;;;;;5047215;28;20091;-69
2021/12/14 12:47:11;;;;;;;0.10;0.10;;;8.90;99.90;;;;;;5018871;28;20038;-70
2021/12/14 12:49:56;;;;;;;0.10;0.10;;;8.80;99.90;;;;;;5032022;28;20037;-70
2021/12/14 12:52:29;;;;;;;0.28;0.28;;;8.70;99.90;;;;;;5035065;28;20017;-70
2021/12/14 12:55:12;;;;;;;0.10;0.10;;;8.70;99.90;;;;;;5043855;28;20101;-70
2021/12/14 12:57:56;;;;;;;0.10;0.10;;;8.80;99.90;;;;;;5018360;28;20141;-70
2021/12/14 13:00:29;;;;;;;0.57;0.57;;;8.80;99.90;;;;;;5027189;28;20060;-69
2021/12/14 13:03:09;;;;;;;0.10;0.10;;;8.80;99.90;;;;;;5031060;28;20362;-68
2021/12/14 13:05:46;;;;;;;0.95;0.95;;;8.90;99.90;;;;;;5029284;28;20026;-68
2021/12/14 13:08:23;;;;;;;0.10;0.10;;;8.90;99.90;;;;;;5030851;28;20037;-69
2021/12/14 13:10:57;;;;;;;0.10;0.10;;;9.00;99.90;;;;;;5029664;28;20049;-70
2021/12/14 13:13:42;;;;;;;0.13;0.13;;;9.20;99.90;;;;;;5029744;28;20025;-70
2021/12/14 13:16:35;;;;;;;0.10;0.10;;;9.20;99.90;;;;;;5022795;28;20029;-68
2021/12/14 13:19:15;;;;;;;0.20;0.20;;;9.20;99.90;;;;;;5020182;28;20402;-68
2021/12/14 13:21:57;;;;;;;0.10;0.10;;;9.20;99.90;;;;;;5030246;28;20469;-70
2021/12/14 13:24:42;;;;;;;0.05;0.05;;;9.30;99.90;;;;;;5035384;28;20071;-68
2021/12/14 13:27:10;;;;;;;0.03;0.03;;;9.40;99.90;;;;;;5020316;28;20043;-69
2021/12/14 13:29:44;;;;;;;0.03;0.03;;;9.40;99.90;;;;;;5035321;28;20037;-70
2021/12/14 13:32:39;;;;;;;0.00;0.00;;;9.20;99.90;;;;;;5011519;28;20026;-69
2021/12/14 13:35:15;;;;;;;0.10;0.10;;;9.20;99.90;;;;;;5023478;28;20013;-69
2021/12/14 13:37:48;;;;;;;0.10;0.10;;;9.20;99.90;;;;;;5029725;28;20071;-69
2021/12/14 13:40:16;;;;;;;0.10;0.10;;;9.10;99.90;;;;;;5018376;28;20037;-68
2021/12/14 13:42:58;;;;;;;0.10;0.10;;;9.00;99.90;;;;;;5026973;28;20024;-71
2021/12/14 13:45:30;;;;;;;0.10;0.10;;;8.80;99.90;;;;;;5031514;28;20029;-69
2021/12/14 13:47:59;;;;;;;0.10;0.10;;;8.70;99.90;;;;;;5029777;28;20163;-69
2021/12/14 13:50:50;;;;;;;0.00;0.00;;;8.60;99.90;;;;;;5021857;28;20112;-68
2021/12/14 13:53:16;;;;;;;0.55;0.55;;;8.50;99.90;;;;;;5018374;28;20097;-67
2021/12/14 13:55:51;;;;;;;0.10;0.10;;;8.50;99.90;;;;;;5027923;28;20021;-69
2021/12/14 13:58:21;;;;;;;3.63;3.30;;;8.30;99.90;;;;;;5018121;28;20104;-69
2021/12/14 14:00:58;;;;;;;0.10;0.10;;;8.20;99.90;;;;;;5024567;28;20075;-69
2021/12/14 14:03:32;;;;;;;0.10;0.10;;;8.20;99.90;;;;;;5022758;28;20030;-69
2021/12/14 14:06:02;;;;;;;0.10;0.10;;;8.10;99.90;;;;;;5029477;28;20041;-69
2021/12/14 14:08:36;;;;;;;0.10;0.10;;;8.10;99.90;;;;;;5024671;28;20025;-68
2021/12/14 14:11:19;;;;;;;0.10;0.10;;;8.00;99.90;;;;;;5028967;28;20021;-69